sensor_id;sensor_type;location;lat;lon;timestamp;pressure;altitude;pressure_sealevel;temperature;humidity
39773;BME280;25451;51.960;6.250;2023-02-10T00:00:43;103372.75;;;2.67;69.61
39773;BME280;25451;51.960;6.250;2023-02-10T00:03:09;103373.88;;;2.64;69.91
39773;BME280;25451;51.960;6.250;2023-02-10T00:05:34;103359.75;;;2.59;70.23
39773;BME280;25451;51.960;6.250;2023-02-10T00:07:59;103377.00;;;2.60;70.03
39773;BME280;25451;51.960;6.250;2023-02-10T00:10:24;103372.94;;;2.54;69.88
39773;BME280;25451;51.960;6.250;2023-02-10T00:12:50;103380.97;;;2.56;70.19
39773;BME280;25451;51.960;6.250;2023-02-10T00:15:15;103377.75;;;2.50;69.74
39773;BME280;25451;51.960;6.250;2023-02-10T00:17:40;103387.81;;;2.50;69.74
39773;BME280;25451;51.960;6.250;2023-02-10T00:20:06;103385.34;;;2.47;70.04
39773;BME280;25451;51.960;6.250;2023-02-10T00:22:33;103382.16;;;2.42;69.79
39773;BME280;25451;51.960;6.250;2023-02-10T00:24:58;103385.88;;;2.41;70.17
39773;BME280;25451;51.960;6.250;2023-02-10T00:27:23;103389.59;;;2.40;69.83
39773;BME280;25451;51.960;6.250;2023-02-10T00:29:49;103383.41;;;2.38;70.24
39773;BME280;25451;51.960;6.250;2023-02-10T00:32:15;103389.09;;;2.35;69.83
39773;BME280;25451;51.960;6.250;2023-02-10T00:34:43;103383.78;;;2.33;70.09
39773;BME280;25451;51.960;6.250;2023-02-10T00:37:08;103393.09;;;2.31;70.08
39773;BME280;25451;51.960;6.250;2023-02-10T00:39:33;103387.91;;;2.28;69.80
39773;BME280;25451;51.960;6.250;2023-02-10T00:41:59;103401.41;;;2.29;69.95
39773;BME280;25451;51.960;6.250;2023-02-10T00:44:24;103400.91;;;2.24;69.70
39773;BME280;25451;51.960;6.250;2023-02-10T00:46:49;103391.97;;;2.22;70.18
39773;BME280;25451;51.960;6.250;2023-02-10T00:49:15;103394.59;;;2.24;70.07
39773;BME280;25451;51.960;6.250;2023-02-10T00:51:40;103400.28;;;2.21;70.15
39773;BME280;25451;51.960;6.250;2023-02-10T00:54:05;103402.16;;;2.20;70.10
39773;BME280;25451;51.960;6.250;2023-02-10T00:56:30;103393.38;;;2.17;70.15
39773;BME280;25451;51.960;6.250;2023-02-10T00:58:56;103401.41;;;2.18;70.30
39773;BME280;25451;51.960;6.250;2023-02-10T01:01:21;103407.88;;;2.17;69.98
39773;BME280;25451;51.960;6.250;2023-02-10T01:03:46;103403.53;;;2.15;69.70
39773;BME280;25451;51.960;6.250;2023-02-10T01:06:13;103406.25;;;2.15;69.81
39773;BME280;25451;51.960;6.250;2023-02-10T01:08:39;103405.53;;;2.13;70.01
39773;BME280;25451;51.960;6.250;2023-02-10T01:11:08;103412.69;;;2.14;70.09
39773;BME280;25451;51.960;6.250;2023-02-10T01:13:34;103412.69;;;2.14;70.22
39773;BME280;25451;51.960;6.250;2023-02-10T01:16:03;103410.97;;;2.13;69.82
39773;BME280;25451;51.960;6.250;2023-02-10T01:18:29;103405.75;;;2.10;70.21
39773;BME280;25451;51.960;6.250;2023-02-10T01:20:54;103419.28;;;2.11;69.81
39773;BME280;25451;51.960;6.250;2023-02-10T01:23:20;103418.41;;;2.11;70.06
39773;BME280;25451;51.960;6.250;2023-02-10T01:25:45;103408.47;;;2.10;69.94
39773;BME280;25451;51.960;6.250;2023-02-10T01:28:10;103403.53;;;2.04;70.22
39773;BME280;25451;51.960;6.250;2023-02-10T01:30:36;103405.16;;;2.06;69.99
39773;BME280;25451;51.960;6.250;2023-02-10T01:33:01;103408.97;;;2.04;70.10
39773;BME280;25451;51.960;6.250;2023-02-10T01:35:27;103405.66;;;2.00;70.19
39773;BME280;25451;51.960;6.250;2023-02-10T01:37:52;103416.41;;;2.02;69.98
39773;BME280;25451;51.960;6.250;2023-02-10T01:40:19;103417.44;;;2.01;69.79
39773;BME280;25451;51.960;6.250;2023-02-10T01:42:45;103417.44;;;2.01;70.16
39773;BME280;25451;51.960;6.250;2023-02-10T01:47:51;103408.66;;;1.97;69.80
39773;BME280;25451;51.960;6.250;2023-02-10T01:50:20;103416.91;;;1.96;70.10
39773;BME280;25451;51.960;6.250;2023-02-10T01:52:47;103411.59;;;1.94;69.94
39773;BME280;25451;51.960;6.250;2023-02-10T01:55:16;103420.78;;;1.93;69.79
39773;BME280;25451;51.960;6.250;2023-02-10T01:57:43;103411.97;;;1.90;70.01
39773;BME280;25451;51.960;6.250;2023-02-10T02:00:11;103418.16;;;1.92;70.30
39773;BME280;25451;51.960;6.250;2023-02-10T02:02:37;103408.41;;;1.89;69.85
39773;BME280;25451;51.960;6.250;2023-02-10T02:05:06;103403.81;;;1.90;69.89
39773;BME280;25451;51.960;6.250;2023-02-10T02:07:34;103409.53;;;1.87;70.38
39773;BME280;25451;51.960;6.250;2023-02-10T02:10:03;103418.44;;;1.89;69.95
39773;BME280;25451;51.960;6.250;2023-02-10T02:12:41;103416.81;;;1.86;70.11
39773;BME280;25451;51.960;6.250;2023-02-10T02:15:19;103403.47;;;1.83;69.83
39773;BME280;25451;51.960;6.250;2023-02-10T02:18:02;103413.22;;;1.86;69.96
39773;BME280;25451;51.960;6.250;2023-02-10T02:34:14;103428.34;;;1.79;70.22
39773;BME280;25451;51.960;6.250;2023-02-10T02:36:49;103423.13;;;1.76;70.11
39773;BME280;25451;51.960;6.250;2023-02-10T02:39:16;103418.81;;;1.73;69.87
39773;BME280;25451;51.960;6.250;2023-02-10T02:41:41;103424.13;;;1.75;70.29
39773;BME280;25451;51.960;6.250;2023-02-10T02:44:07;103414.47;;;1.71;70.17
39773;BME280;25451;51.960;6.250;2023-02-10T02:52:07;103415.59;;;1.68;69.92
39773;BME280;25451;51.960;6.250;2023-02-10T02:54:50;103422.88;;;1.67;70.24
39773;BME280;25451;51.960;6.250;2023-02-10T02:57:25;103420.16;;;1.67;70.05
39773;BME280;25451;51.960;6.250;2023-02-10T03:00:09;103418.69;;;1.63;70.29
39773;BME280;25451;51.960;6.250;2023-02-10T03:02:37;103424.38;;;1.60;69.97
39773;BME280;25451;51.960;6.250;2023-02-10T03:05:07;103431.53;;;1.61;70.06
39773;BME280;25451;51.960;6.250;2023-02-10T03:07:32;103425.63;;;1.56;70.09
39773;BME280;25451;51.960;6.250;2023-02-10T03:09:58;103442.69;;;1.58;70.10
39773;BME280;25451;51.960;6.250;2023-02-10T03:12:23;103436.59;;;1.55;70.39
39773;BME280;25451;51.960;6.250;2023-02-10T03:14:48;103434.88;;;1.54;70.02
39773;BME280;25451;51.960;6.250;2023-02-10T03:17:13;103443.06;;;1.54;70.13
39773;BME280;25451;51.960;6.250;2023-02-10T03:19:39;103422.66;;;1.48;70.14
39773;BME280;25451;51.960;6.250;2023-02-10T03:22:04;103434.28;;;1.50;70.29
39773;BME280;25451;51.960;6.250;2023-02-10T03:24:29;103437.97;;;1.49;70.11
39773;BME280;25451;51.960;6.250;2023-02-10T03:26:55;103441.69;;;1.48;70.21
39773;BME280;25451;51.960;6.250;2023-02-10T03:29:20;103433.63;;;1.47;70.51
39773;BME280;25451;51.960;6.250;2023-02-10T03:31:45;103432.78;;;1.46;70.45
39773;BME280;25451;51.960;6.250;2023-02-10T03:34:10;103441.91;;;1.45;70.02
39773;BME280;25451;51.960;6.250;2023-02-10T03:36:36;103437.56;;;1.43;70.16
39773;BME280;25451;51.960;6.250;2023-02-10T03:39:02;103443.03;;;1.43;70.21
39773;BME280;25451;51.960;6.250;2023-02-10T03:41:28;103440.44;;;1.41;70.46
39773;BME280;25451;51.960;6.250;2023-02-10T03:43:53;103439.81;;;1.38;70.33
39773;BME280;25451;51.960;6.250;2023-02-10T03:46:18;103440.78;;;1.37;70.20
39773;BME280;25451;51.960;6.250;2023-02-10T03:48:44;103437.22;;;1.36;70.04
39773;BME280;25451;51.960;6.250;2023-02-10T03:51:09;103439.06;;;1.36;70.40
39773;BME280;25451;51.960;6.250;2023-02-10T03:53:35;103437.22;;;1.36;70.27
39773;BME280;25451;51.960;6.250;2023-02-10T03:56:00;103444.63;;;1.34;70.08
39773;BME280;25451;51.960;6.250;2023-02-10T03:58:26;103451.94;;;1.34;70.28
39773;BME280;25451;51.960;6.250;2023-02-10T04:00:51;103438.56;;;1.31;70.47
39773;BME280;25451;51.960;6.250;2023-02-10T04:03:17;103434.00;;;1.31;70.38
39773;BME280;25451;51.960;6.250;2023-02-10T04:05:42;103437.72;;;1.30;70.04
39773;BME280;25451;51.960;6.250;2023-02-10T04:08:08;103429.78;;;1.27;70.06
39773;BME280;25451;51.960;6.250;2023-02-10T04:10:33;103435.09;;;1.29;70.43
39773;BME280;25451;51.960;6.250;2023-02-10T04:12:59;103432.63;;;1.26;70.40
39773;BME280;25451;51.960;6.250;2023-02-10T04:15:24;103424.06;;;1.19;70.05
39773;BME280;25451;51.960;6.250;2023-02-10T04:17:49;103421.34;;;1.19;70.64
39773;BME280;25451;51.960;6.250;2023-02-10T04:20:15;103428.16;;;1.25;70.19
39773;BME280;25451;51.960;6.250;2023-02-10T04:22:41;103440.03;;;1.24;70.14
39773;BME280;25451;51.960;6.250;2023-02-10T04:25:06;103439.16;;;1.23;70.41
39773;BME280;25451;51.960;6.250;2023-02-10T04:27:32;103434.69;;;1.22;70.20
39773;BME280;25451;51.960;6.250;2023-02-10T04:29:57;103435.81;;;1.20;69.84
39773;BME280;25451;51.960;6.250;2023-02-10T04:32:22;103433.94;;;1.20;70.51
39773;BME280;25451;51.960;6.250;2023-02-10T04:34:48;103422.31;;;1.18;70.12
39773;BME280;25451;51.960;6.250;2023-02-10T04:37:13;103436.78;;;1.19;70.45
39773;BME280;25451;51.960;6.250;2023-02-10T04:39:39;103440.41;;;1.19;70.22
39773;BME280;25451;51.960;6.250;2023-02-10T04:42:04;103431.72;;;1.14;70.39
39773;BME280;25451;51.960;6.250;2023-02-10T04:44:30;103457.81;;;1.17;70.42
39773;BME280;25451;51.960;6.250;2023-02-10T04:46:55;103440.88;;;1.13;70.21
39773;BME280;25451;51.960;6.250;2023-02-10T04:49:20;103441.09;;;1.10;70.33
39773;BME280;25451;51.960;6.250;2023-02-10T04:51:46;103452.63;;;1.14;70.53
39773;BME280;25451;51.960;6.250;2023-02-10T04:54:11;103462.50;;;1.15;70.15
39773;BME280;25451;51.960;6.250;2023-02-10T04:56:37;103453.59;;;1.13;70.15
39773;BME280;25451;51.960;6.250;2023-02-10T04:59:02;103457.31;;;1.12;70.36
39773;BME280;25451;51.960;6.250;2023-02-10T05:01:27;103464.94;;;1.07;70.48
39773;BME280;25451;51.960;6.250;2023-02-10T05:03:53;103461.34;;;1.06;70.03
39773;BME280;25451;51.960;6.250;2023-02-10T05:06:18;103487.47;;;1.09;70.29
39773;BME280;25451;51.960;6.250;2023-02-10T05:08:43;103486.59;;;1.08;70.55
39773;BME280;25451;51.960;6.250;2023-02-10T05:11:13;103481.28;;;1.07;70.07
39773;BME280;25451;51.960;6.250;2023-02-10T05:13:39;103493.78;;;1.09;70.07
39773;BME280;25451;51.960;6.250;2023-02-10T05:16:08;103486.59;;;1.08;70.37
39773;BME280;25451;51.960;6.250;2023-02-10T05:18:34;103477.69;;;1.06;70.40
39773;BME280;25451;51.960;6.250;2023-02-10T05:21:00;103472.22;;;1.06;70.30
39773;BME280;25451;51.960;6.250;2023-02-10T05:23:26;103474.22;;;1.04;70.52
39773;BME280;25451;51.960;6.250;2023-02-10T05:25:52;103467.94;;;1.04;70.14
39773;BME280;25451;51.960;6.250;2023-02-10T05:28:18;103473.47;;;1.02;70.21
39773;BME280;25451;51.960;6.250;2023-02-10T05:30:43;103463.59;;;1.01;70.23
39773;BME280;25451;51.960;6.250;2023-02-10T05:33:08;103465.56;;;0.99;70.20
39773;BME280;25451;51.960;6.250;2023-02-10T05:35:34;103476.44;;;0.99;70.28
39773;BME280;25451;51.960;6.250;2023-02-10T05:37:59;103457.75;;;0.95;70.63
39773;BME280;25451;51.960;6.250;2023-02-10T05:40:27;103462.31;;;0.94;70.56
39773;BME280;25451;51.960;6.250;2023-02-10T05:42:53;103467.53;;;0.97;70.27
39773;BME280;25451;51.960;6.250;2023-02-10T05:45:18;103471.22;;;0.96;70.29
39773;BME280;25451;51.960;6.250;2023-02-10T05:47:43;103463.31;;;0.93;70.45
39773;BME280;25451;51.960;6.250;2023-02-10T05:50:09;103462.31;;;0.94;70.32
39773;BME280;25451;51.960;6.250;2023-02-10T05:52:34;103462.56;;;0.91;70.32
39773;BME280;25451;51.960;6.250;2023-02-10T05:54:59;103468.88;;;0.92;70.64
39773;BME280;25451;51.960;6.250;2023-02-10T05:57:25;103470.72;;;0.91;70.29
39773;BME280;25451;51.960;6.250;2023-02-10T05:59:50;103473.31;;;0.93;70.61
39773;BME280;25451;51.960;6.250;2023-02-10T06:02:15;103473.56;;;0.90;70.56
39773;BME280;25451;51.960;6.250;2023-02-10T06:04:40;103473.44;;;0.91;70.53
39773;BME280;25451;51.960;6.250;2023-02-10T06:07:06;103471.69;;;0.90;70.22
39773;BME280;25451;51.960;6.250;2023-02-10T06:09:31;103466.25;;;0.90;70.26
39773;BME280;25451;51.960;6.250;2023-02-10T06:11:57;103462.78;;;0.88;70.46
39773;BME280;25451;51.960;6.250;2023-02-10T06:14:22;103464.28;;;0.92;70.26
39773;BME280;25451;51.960;6.250;2023-02-10T06:16:47;103457.13;;;0.91;70.02
39773;BME280;25451;51.960;6.250;2023-02-10T06:19:12;103463.44;;;0.92;70.10
39773;BME280;25451;51.960;6.250;2023-02-10T06:21:38;103463.44;;;0.92;70.53
39773;BME280;25451;51.960;6.250;2023-02-10T06:24:03;103453.53;;;0.91;70.15
39773;BME280;25451;51.960;6.250;2023-02-10T06:26:29;103454.53;;;0.90;70.75
39773;BME280;25451;51.960;6.250;2023-02-10T06:28:54;103450.81;;;0.91;70.40
39773;BME280;25451;51.960;6.250;2023-02-10T06:31:20;103443.88;;;0.87;70.57
39773;BME280;25451;51.960;6.250;2023-02-10T06:33:45;103456.13;;;0.92;70.73
39773;BME280;25451;51.960;6.250;2023-02-10T06:36:10;103462.56;;;0.91;70.73
39773;BME280;25451;51.960;6.250;2023-02-10T06:38:38;103460.81;;;0.90;70.24
39773;BME280;25451;51.960;6.250;2023-02-10T06:41:04;103459.72;;;0.93;70.45
39773;BME280;25451;51.960;6.250;2023-02-10T06:43:29;103457.34;;;0.88;70.28
39773;BME280;25451;51.960;6.250;2023-02-10T06:45:55;103466.16;;;0.92;70.97
39773;BME280;25451;51.960;6.250;2023-02-10T06:48:20;103472.34;;;0.94;70.77
39773;BME280;25451;51.960;6.250;2023-02-10T06:50:45;103471.47;;;0.93;70.45
39773;BME280;25451;51.960;6.250;2023-02-10T06:53:10;103471.34;;;0.95;70.79
39773;BME280;25451;51.960;6.250;2023-02-10T06:55:36;103471.47;;;0.93;70.44
39773;BME280;25451;51.960;6.250;2023-02-10T06:58:02;103471.22;;;0.96;70.96
39773;BME280;25451;51.960;6.250;2023-02-10T07:00:28;103467.75;;;0.94;70.44
39773;BME280;25451;51.960;6.250;2023-02-10T07:02:54;103463.19;;;0.95;70.51
39773;BME280;25451;51.960;6.250;2023-02-10T07:05:20;103478.41;;;0.97;70.71
39773;BME280;25451;51.960;6.250;2023-02-10T07:07:45;103478.41;;;0.97;70.72
39773;BME280;25451;51.960;6.250;2023-02-10T07:10:11;103487.31;;;0.99;70.74
39773;BME280;25451;51.960;6.250;2023-02-10T07:12:36;103492.75;;;0.99;70.90
39773;BME280;25451;51.960;6.250;2023-02-10T07:15:03;103498.94;;;1.01;70.89
39773;BME280;25451;51.960;6.250;2023-02-10T07:17:28;103491.75;;;1.00;70.95
39773;BME280;25451;51.960;6.250;2023-02-10T07:19:53;103493.72;;;0.98;71.01
39773;BME280;25451;51.960;6.250;2023-02-10T07:22:18;103490.78;;;1.01;70.94
39773;BME280;25451;51.960;6.250;2023-02-10T07:24:45;103501.41;;;1.04;70.78
39773;BME280;25451;51.960;6.250;2023-02-10T07:27:11;103508.59;;;1.05;70.74
39773;BME280;25451;51.960;6.250;2023-02-10T07:29:36;103516.16;;;1.13;70.70
39773;BME280;25451;51.960;6.250;2023-02-10T07:32:02;103512.47;;;1.14;70.78
39773;BME280;25451;51.960;6.250;2023-02-10T07:34:28;103513.97;;;1.18;71.07
39773;BME280;25451;51.960;6.250;2023-02-10T07:36:56;103517.31;;;1.21;70.98
39773;BME280;25451;51.960;6.250;2023-02-10T07:39:25;103506.44;;;1.21;71.21
39773;BME280;25451;51.960;6.250;2023-02-10T07:41:51;103508.91;;;1.24;71.27
39773;BME280;25451;51.960;6.250;2023-02-10T07:44:16;103511.38;;;1.27;70.84
39773;BME280;25451;51.960;6.250;2023-02-10T07:46:42;103503.75;;;1.32;71.26
39773;BME280;25451;51.960;6.250;2023-02-10T07:49:07;103494.72;;;1.32;71.30
39773;BME280;25451;51.960;6.250;2023-02-10T07:51:33;103498.06;;;1.35;70.89
39773;BME280;25451;51.960;6.250;2023-02-10T07:53:58;103513.91;;;1.41;71.29
39773;BME280;25451;51.960;6.250;2023-02-10T07:56:24;103512.94;;;1.42;71.37
39773;BME280;25451;51.960;6.250;2023-02-10T07:58:49;103515.53;;;1.44;71.11
39773;BME280;25451;51.960;6.250;2023-02-10T08:01:14;103523.97;;;1.52;71.08
39773;BME280;25451;51.960;6.250;2023-02-10T08:03:40;103512.94;;;1.53;70.97
39773;BME280;25451;51.960;6.250;2023-02-10T08:06:06;103529.78;;;1.58;71.38
39773;BME280;25451;51.960;6.250;2023-02-10T08:08:32;103532.25;;;1.61;71.36
39773;BME280;25451;51.960;6.250;2023-02-10T08:10:57;103529.31;;;1.64;71.42
39773;BME280;25451;51.960;6.250;2023-02-10T08:13:23;103535.50;;;1.66;71.22
39773;BME280;25451;51.960;6.250;2023-02-10T08:15:49;103540.69;;;1.69;71.19
39773;BME280;25451;51.960;6.250;2023-02-10T08:18:15;103545.78;;;1.74;71.29
39773;BME280;25451;51.960;6.250;2023-02-10T08:20:40;103551.22;;;1.74;71.28
39773;BME280;25451;51.960;6.250;2023-02-10T08:23:06;103559.03;;;1.79;71.37
39773;BME280;25451;51.960;6.250;2023-02-10T08:25:32;103558.78;;;1.82;71.69
39773;BME280;25451;51.960;6.250;2023-02-10T08:27:58;103559.44;;;1.85;71.34
39773;BME280;25451;51.960;6.250;2023-02-10T08:30:24;103558.78;;;1.82;71.35
39773;BME280;25451;51.960;6.250;2023-02-10T08:32:49;103581.56;;;1.92;71.58
39773;BME280;25451;51.960;6.250;2023-02-10T08:35:15;103578.75;;;1.93;71.24
39773;BME280;25451;51.960;6.250;2023-02-10T08:37:40;103583.81;;;1.98;71.65
39773;BME280;25451;51.960;6.250;2023-02-10T08:40:06;103572.56;;;2.02;71.63
39773;BME280;25451;51.960;6.250;2023-02-10T08:42:33;103566.88;;;2.05;71.80
39773;BME280;25451;51.960;6.250;2023-02-10T08:44:59;103568.38;;;2.09;71.72
39773;BME280;25451;51.960;6.250;2023-02-10T08:47:25;103562.78;;;2.11;71.80
39773;BME280;25451;51.960;6.250;2023-02-10T08:49:50;103552.63;;;2.13;71.47
39773;BME280;25451;51.960;6.250;2023-02-10T08:52:15;103556.97;;;2.15;71.64
39773;BME280;25451;51.960;6.250;2023-02-10T08:54:41;103546.47;;;2.22;71.36
39773;BME280;25451;51.960;6.250;2023-02-10T08:57:07;103546.19;;;2.25;71.74
39773;BME280;25451;51.960;6.250;2023-02-10T08:59:32;103559.59;;;2.28;71.78
39773;BME280;25451;51.960;6.250;2023-02-10T09:01:58;103559.09;;;2.34;71.47
39773;BME280;25451;51.960;6.250;2023-02-10T09:04:23;103547.19;;;2.35;71.82
39773;BME280;25451;51.960;6.250;2023-02-10T09:06:49;103542.47;;;2.37;71.60
39773;BME280;25451;51.960;6.250;2023-02-10T09:09:17;103554.63;;;2.44;71.50
39773;BME280;25451;51.960;6.250;2023-02-10T09:11:45;103547.19;;;2.46;71.91
39773;BME280;25451;51.960;6.250;2023-02-10T09:14:11;103554.13;;;2.50;71.75
39773;BME280;25451;51.960;6.250;2023-02-10T09:16:36;103565.50;;;2.55;71.64
39773;BME280;25451;51.960;6.250;2023-02-10T09:19:02;103553.47;;;2.58;72.11
39773;BME280;25451;51.960;6.250;2023-02-10T09:21:27;103560.28;;;2.63;71.81
39773;BME280;25451;51.960;6.250;2023-02-10T09:23:53;103569.19;;;2.65;72.43
39773;BME280;25451;51.960;6.250;2023-02-10T09:26:18;103570.69;;;2.69;71.79
39773;BME280;25451;51.960;6.250;2023-02-10T09:28:43;103564.13;;;2.72;72.16
39773;BME280;25451;51.960;6.250;2023-02-10T09:31:12;103575.38;;;2.78;72.15
39773;BME280;25451;51.960;6.250;2023-02-10T09:33:38;103575.00;;;2.83;72.08
39773;BME280;25451;51.960;6.250;2023-02-10T09:36:05;103575.63;;;2.86;72.31
39773;BME280;25451;51.960;6.250;2023-02-10T09:38:32;103578.81;;;2.91;72.00
39773;BME280;25451;51.960;6.250;2023-02-10T09:52:15;103567.88;;;3.13;72.04
39773;BME280;25451;51.960;6.250;2023-02-10T09:54:43;103573.53;;;3.21;72.13
39773;BME280;25451;51.960;6.250;2023-02-10T09:57:18;103574.88;;;3.27;72.25
39773;BME280;25451;51.960;6.250;2023-02-10T09:59:45;103576.47;;;3.29;72.29
39773;BME280;25451;51.960;6.250;2023-02-10T10:02:28;103577.53;;;3.38;72.19
39773;BME280;25451;51.960;6.250;2023-02-10T10:04:58;103585.34;;;3.43;72.24
39773;BME280;25451;51.960;6.250;2023-02-10T10:07:33;103588.56;;;3.48;72.11
39773;BME280;25451;51.960;6.250;2023-02-10T10:10:05;103585.31;;;3.54;72.42
39773;BME280;25451;51.960;6.250;2023-02-10T10:12:34;103583.03;;;3.59;72.24
39773;BME280;25451;51.960;6.250;2023-02-10T10:14:59;103588.97;;;3.64;72.72
39773;BME280;25451;51.960;6.250;2023-02-10T10:31:14;103581.91;;;4.02;72.57
39773;BME280;25451;51.960;6.250;2023-02-10T10:36:17;103577.81;;;4.17;72.19
39773;BME280;25451;51.960;6.250;2023-02-10T10:38:55;103583.06;;;4.30;72.19
39773;BME280;25451;51.960;6.250;2023-02-10T10:41:27;103583.22;;;4.38;72.21
39773;BME280;25451;51.960;6.250;2023-02-10T10:43:55;103580.56;;;4.48;72.25
39773;BME280;25451;51.960;6.250;2023-02-10T10:46:30;103588.78;;;4.57;72.44
39773;BME280;25451;51.960;6.250;2023-02-10T10:48:59;103578.03;;;4.65;72.24
39773;BME280;25451;51.960;6.250;2023-02-10T10:51:25;103587.84;;;4.77;72.35
39773;BME280;25451;51.960;6.250;2023-02-10T10:53:52;103575.06;;;4.87;72.28
39773;BME280;25451;51.960;6.250;2023-02-10T10:56:22;103577.53;;;5.00;72.42
39773;BME280;25451;51.960;6.250;2023-02-10T10:58:49;103581.00;;;5.12;72.24
39773;BME280;25451;51.960;6.250;2023-02-10T11:01:16;103578.00;;;5.24;72.62
39773;BME280;25451;51.960;6.250;2023-02-10T11:03:42;103577.88;;;5.35;72.67
39773;BME280;25451;51.960;6.250;2023-02-10T11:06:13;103572.97;;;5.48;72.62
39773;BME280;25451;51.960;6.250;2023-02-10T11:08:53;103572.69;;;5.61;72.58
39773;BME280;25451;51.960;6.250;2023-02-10T11:11:42;103570.78;;;5.71;72.81
39773;BME280;25451;51.960;6.250;2023-02-10T11:14:16;103579.63;;;5.84;72.81
39773;BME280;25451;51.960;6.250;2023-02-10T11:16:51;103575.69;;;5.96;72.82
39773;BME280;25451;51.960;6.250;2023-02-10T11:19:21;103571.94;;;6.07;73.11
39773;BME280;25451;51.960;6.250;2023-02-10T11:21:48;103572.44;;;6.20;72.30
39773;BME280;25451;51.960;6.250;2023-02-10T11:24:23;103565.94;;;6.30;72.96
39773;BME280;25451;51.960;6.250;2023-02-10T11:26:58;103556.50;;;6.42;73.23
39773;BME280;25451;51.960;6.250;2023-02-10T11:29:25;103549.06;;;6.52;72.88
39773;BME280;25451;51.960;6.250;2023-02-10T11:31:52;103538.34;;;6.59;72.95
39773;BME280;25451;51.960;6.250;2023-02-10T11:36:49;103529.88;;;6.80;73.13
39773;BME280;25451;51.960;6.250;2023-02-10T11:39:20;103529.63;;;6.91;73.27
39773;BME280;25451;51.960;6.250;2023-02-10T11:41:48;103524.22;;;6.99;73.49
39773;BME280;25451;51.960;6.250;2023-02-10T11:44:39;103522.97;;;7.11;73.35
39773;BME280;25451;51.960;6.250;2023-02-10T11:47:13;103513.97;;;7.18;73.33
39773;BME280;25451;51.960;6.250;2023-02-10T11:49:43;103522.38;;;7.34;73.53
39773;BME280;25451;51.960;6.250;2023-02-10T11:52:09;103518.13;;;7.40;73.32
39773;BME280;25451;51.960;6.250;2023-02-10T11:54:36;103529.56;;;7.53;73.12
39773;BME280;25451;51.960;6.250;2023-02-10T12:05:57;103507.28;;;7.82;73.48
39773;BME280;25451;51.960;6.250;2023-02-10T12:08:46;103517.09;;;7.84;73.71
39773;BME280;25451;51.960;6.250;2023-02-10T12:11:43;103514.56;;;7.91;73.11
39773;BME280;25451;51.960;6.250;2023-02-10T12:14:36;103488.41;;;7.87;73.48
39773;BME280;25451;51.960;6.250;2023-02-10T12:20:02;103501.25;;;8.04;73.53
39773;BME280;25451;51.960;6.250;2023-02-10T12:22:57;103489.72;;;8.08;73.36
39773;BME280;25451;51.960;6.250;2023-02-10T12:34:50;103505.09;;;8.19;73.25
39773;BME280;25451;51.960;6.250;2023-02-10T12:40:44;103497.53;;;8.21;73.05
39773;BME280;25451;51.960;6.250;2023-02-10T12:49:04;103489.69;;;8.26;73.00
39773;BME280;25451;51.960;6.250;2023-02-10T12:51:43;103476.97;;;8.25;73.16
39773;BME280;25451;51.960;6.250;2023-02-10T12:54:18;103473.03;;;8.27;73.12
39773;BME280;25451;51.960;6.250;2023-02-10T12:57:00;103468.56;;;8.26;72.80
39773;BME280;25451;51.960;6.250;2023-02-10T12:59:34;103463.06;;;8.26;73.19
39773;BME280;25451;51.960;6.250;2023-02-10T13:02:16;103452.19;;;8.25;73.09
39773;BME280;25451;51.960;6.250;2023-02-10T13:04:46;103458.25;;;8.28;72.92
39773;BME280;25451;51.960;6.250;2023-02-10T13:07:23;103451.69;;;8.29;73.16
39773;BME280;25451;51.960;6.250;2023-02-10T13:12:52;103446.91;;;8.31;72.87
39773;BME280;25451;51.960;6.250;2023-02-10T13:17:51;103444.84;;;8.33;72.82
39773;BME280;25451;51.960;6.250;2023-02-10T13:26:00;103446.22;;;8.38;72.49
39773;BME280;25451;51.960;6.250;2023-02-10T13:28:38;103439.72;;;8.39;71.97
39773;BME280;25451;51.960;6.250;2023-02-10T13:34:19;103431.78;;;8.44;72.40
39773;BME280;25451;51.960;6.250;2023-02-10T13:36:49;103421.47;;;8.46;71.85
39773;BME280;25451;51.960;6.250;2023-02-10T13:39:20;103434.06;;;8.48;71.72
39773;BME280;25451;51.960;6.250;2023-02-10T13:41:49;103425.81;;;8.48;72.03
39773;BME280;25451;51.960;6.250;2023-02-10T13:46:52;103430.13;;;8.51;72.11
39773;BME280;25451;51.960;6.250;2023-02-10T13:49:20;103411.00;;;8.49;71.60
39773;BME280;25451;51.960;6.250;2023-02-10T13:51:47;103407.72;;;8.46;71.42
39773;BME280;25451;51.960;6.250;2023-02-10T13:54:29;103412.72;;;8.50;71.72
39773;BME280;25451;51.960;6.250;2023-02-10T13:56:57;103398.09;;;8.50;71.81
39773;BME280;25451;51.960;6.250;2023-02-10T13:59:40;103388.13;;;8.49;71.25
39773;BME280;25451;51.960;6.250;2023-02-10T14:02:15;103381.94;;;8.47;71.02
39773;BME280;25451;51.960;6.250;2023-02-10T14:04:44;103379.31;;;8.45;70.97
39773;BME280;25451;51.960;6.250;2023-02-10T14:12:54;103375.53;;;8.38;70.92
39773;BME280;25451;51.960;6.250;2023-02-10T14:15:26;103375.72;;;8.37;70.80
39773;BME280;25451;51.960;6.250;2023-02-10T14:18:20;103373.97;;;8.35;70.48
39773;BME280;25451;51.960;6.250;2023-02-10T14:21:12;103374.34;;;8.32;70.77
39773;BME280;25451;51.960;6.250;2023-02-10T14:23:41;103379.28;;;8.29;70.88
39773;BME280;25451;51.960;6.250;2023-02-10T14:26:20;103379.28;;;8.29;70.22
39773;BME280;25451;51.960;6.250;2023-02-10T14:28:50;103391.16;;;8.29;70.79
39773;BME280;25451;51.960;6.250;2023-02-10T14:31:23;103389.47;;;8.28;70.07
39773;BME280;25451;51.960;6.250;2023-02-10T14:33:58;103379.91;;;8.23;70.14
39773;BME280;25451;51.960;6.250;2023-02-10T14:36:24;103385.78;;;8.20;70.36
39773;BME280;25451;51.960;6.250;2023-02-10T14:38:54;103388.75;;;8.26;70.02
39773;BME280;25451;51.960;6.250;2023-02-10T14:41:21;103389.78;;;8.25;70.26
39773;BME280;25451;51.960;6.250;2023-02-10T14:43:49;103388.03;;;8.24;70.30
39773;BME280;25451;51.960;6.250;2023-02-10T14:46:31;103370.97;;;8.21;70.15
39773;BME280;25451;51.960;6.250;2023-02-10T14:48:58;103382.84;;;8.21;69.62